createdAt,value
2022-09-07T00:00:58.161Z,76810.78
2022-09-07T00:03:24.711Z,76812.78
2022-09-07T00:05:51.980Z,76816.78
2022-09-07T00:08:19.386Z,76810.78
2022-09-07T00:10:53.817Z,76810.78
2022-09-07T00:13:20.942Z,76806.78
2022-09-07T00:15:47.369Z,76802.78
2022-09-07T00:18:13.897Z,76794.78
2022-09-07T00:20:40.338Z,76782.78
2022-09-07T00:23:06.786Z,76786.78
2022-09-07T00:25:37.993Z,76786.78
2022-09-07T00:28:04.501Z,76790.78
2022-09-07T00:30:30.881Z,76786.78
2022-09-07T00:32:57.225Z,76788.78
2022-09-07T00:35:23.622Z,76786.78
2022-09-07T00:37:49.999Z,76782.78
2022-09-07T00:40:16.407Z,76786.78
2022-09-07T00:42:42.768Z,76780.78
2022-09-07T00:45:10.031Z,76778.75
2022-09-07T00:47:42.660Z,76774.75
2022-09-07T00:50:28.349Z,76766.75
2022-09-07T00:52:57.963Z,76770.75
2022-09-07T00:55:24.777Z,76770.75
2022-09-07T00:57:53.128Z,76772.75
2022-09-07T01:00:19.566Z,76770.75
2022-09-07T01:02:47.294Z,76774.75
2022-09-07T01:05:17.297Z,76782.78
2022-09-07T01:07:44.507Z,76780.78
2022-09-07T01:10:11.526Z,76772.75
2022-09-07T01:12:37.914Z,76772.75
2022-09-07T01:15:04.727Z,76774.75
2022-09-07T01:17:43.244Z,76770.75
2022-09-07T01:20:09.647Z,76764.75
2022-09-07T01:22:56.275Z,76768.75
2022-09-07T01:25:35.311Z,76768.75
2022-09-07T01:28:13.868Z,76774.75
2022-09-07T01:30:42.880Z,76778.75
2022-09-07T01:33:18.622Z,76778.75
2022-09-07T01:35:55.330Z,76782.78
2022-09-07T01:38:28.311Z,76776.75
2022-09-07T01:41:02.819Z,76770.75
2022-09-07T01:43:35.367Z,76772.75
2022-09-07T01:46:03.549Z,76770.75
2022-09-07T01:48:32.243Z,76772.75
2022-09-07T01:51:02.314Z,76766.75
2022-09-07T01:53:33.452Z,76766.75
2022-09-07T01:56:08.447Z,76770.75
2022-09-07T01:58:34.816Z,76774.75
2022-09-07T02:01:23.779Z,76776.75
2022-09-07T02:03:56.998Z,76778.75
2022-09-07T02:06:26.744Z,76776.75
2022-09-07T02:08:58.493Z,76770.75
2022-09-07T02:11:30.642Z,76770.75
2022-09-07T02:14:00.747Z,76772.75
2022-09-07T02:16:28.363Z,76770.75
2022-09-07T02:19:13.292Z,76764.75
2022-09-07T02:21:41.771Z,76764.75
2022-09-07T02:24:21.136Z,76762.75
2022-09-07T02:26:49.572Z,76756.75
2022-09-07T02:29:15.992Z,76758.75
2022-09-07T02:31:42.375Z,76762.75
2022-09-07T02:34:08.766Z,76770.75
2022-09-07T02:36:45.892Z,76762.75
2022-09-07T02:39:12.729Z,76762.75
2022-09-07T02:41:40.331Z,76768.75
2022-09-07T02:46:40.143Z,76762.75
2022-09-07T02:49:21.550Z,76764.75
2022-09-07T02:51:54.179Z,76764.75
2022-09-07T02:54:20.679Z,76762.75
2022-09-07T02:57:06.479Z,76754.75
2022-09-07T02:59:35.615Z,76750.75
2022-09-07T03:02:04.833Z,76752.75
2022-09-07T03:04:31.250Z,76754.75
2022-09-07T03:07:04.499Z,76758.75
2022-09-07T03:09:35.372Z,76762.75
2022-09-07T03:12:03.036Z,76758.75
2022-09-07T03:14:33.322Z,76758.75
2022-09-07T03:17:00.347Z,76750.75
2022-09-07T03:19:27.120Z,76750.75
2022-09-07T03:21:53.662Z,76746.75
2022-09-07T03:24:20.065Z,76750.75
2022-09-07T03:26:47.448Z,76750.75
2022-09-07T03:29:14.398Z,76746.75
2022-09-07T03:31:40.828Z,76750.75
2022-09-07T03:34:07.370Z,76754.75
2022-09-07T03:36:33.834Z,76750.75
2022-09-07T03:39:00.301Z,76754.75
2022-09-07T03:41:27.237Z,76754.75
2022-09-07T03:43:53.880Z,76750.75
2022-09-07T03:46:20.584Z,76756.75
2022-09-07T03:48:48.068Z,76748.75
2022-09-07T03:51:15.209Z,76744.75
2022-09-07T03:53:43.692Z,76746.75
2022-09-07T03:56:14.818Z,76744.75
2022-09-07T03:58:41.193Z,76746.75
2022-09-07T04:01:09.172Z,76740.75
2022-09-07T04:03:36.038Z,76734.72
2022-09-07T04:06:03.034Z,76738.75
2022-09-07T04:08:30.668Z,76738.75
2022-09-07T04:10:57.960Z,76738.75
2022-09-07T04:13:25.124Z,76738.75
2022-09-07T04:15:53.892Z,76734.72
2022-09-07T04:18:20.535Z,76734.72
2022-09-07T04:20:47.402Z,76736.72
2022-09-07T04:23:14.033Z,76738.75
2022-09-07T04:25:47.135Z,76734.72
2022-09-07T04:28:13.546Z,76738.75
2022-09-07T04:30:40.003Z,76744.75
2022-09-07T04:33:06.439Z,76744.75
2022-09-07T04:35:36.229Z,76738.75
2022-09-07T04:38:02.607Z,76744.75
2022-09-07T04:40:28.990Z,76748.75
2022-09-07T04:42:55.463Z,76748.75
2022-09-07T04:45:21.934Z,76738.75
2022-09-07T04:47:48.866Z,76734.72
2022-09-07T04:50:18.531Z,76730.72
2022-09-07T04:52:45.228Z,76734.72
2022-09-07T04:55:12.265Z,76730.72
2022-09-07T04:57:38.717Z,76730.72
2022-09-07T05:00:08.617Z,76726.72
2022-09-07T05:02:35.096Z,76726.72
2022-09-07T05:05:02.876Z,76722.72
2022-09-07T05:07:29.488Z,76722.72
2022-09-07T05:09:56.755Z,76722.72
2022-09-07T05:12:23.236Z,76722.72
2022-09-07T05:14:49.606Z,76726.72
2022-09-07T05:17:16.184Z,76722.72
2022-09-07T05:19:42.603Z,76722.72
2022-09-07T05:22:08.988Z,76722.72
2022-09-07T05:24:36.750Z,76714.72
2022-09-07T05:27:03.932Z,76722.72
2022-09-07T05:32:17.137Z,76716.72
2022-09-07T05:34:43.570Z,76714.72
2022-09-07T05:37:10.383Z,76718.72
2022-09-07T05:39:36.866Z,76720.72
2022-09-07T05:42:03.665Z,76714.72
2022-09-07T05:44:47.131Z,76710.72
2022-09-07T05:47:13.953Z,76706.72
2022-09-07T05:49:40.371Z,76716.72
2022-09-07T05:52:06.941Z,76714.72
2022-09-07T05:54:33.323Z,76706.72
2022-09-07T05:56:59.748Z,76702.72
2022-09-07T05:59:26.128Z,76704.72
2022-09-07T06:01:52.623Z,76706.72
2022-09-07T06:04:19.278Z,76710.72
2022-09-07T06:06:59.336Z,76718.72
2022-09-07T06:09:32.223Z,76722.72
2022-09-07T06:11:58.849Z,76726.72
2022-09-07T06:14:25.244Z,76722.72
2022-09-07T06:16:51.681Z,76722.72
2022-09-07T06:19:18.165Z,76722.72
2022-09-07T06:21:44.533Z,76722.72
2022-09-07T06:24:10.950Z,76726.72
2022-09-07T06:26:37.392Z,76718.72
2022-09-07T06:29:03.937Z,76726.72
2022-09-07T06:31:30.737Z,76714.72
2022-09-07T06:33:59.334Z,76722.72
2022-09-07T06:36:27.805Z,76722.72
2022-09-07T06:38:58.909Z,76722.72
2022-09-07T06:44:12.918Z,76728.72
2022-09-07T06:49:25.805Z,76722.72
2022-09-07T06:51:52.235Z,76714.72
2022-09-07T06:57:09.098Z,76714.72
2022-09-07T06:59:36.172Z,76714.72
2022-09-07T07:02:02.635Z,76720.72
2022-09-07T07:04:29.058Z,76710.72
2022-09-07T07:06:55.482Z,76716.72
2022-09-07T07:09:21.874Z,76712.72
2022-09-07T07:11:48.359Z,76718.72
2022-09-07T07:14:15.427Z,76710.72
2022-09-07T07:16:41.932Z,76712.72
2022-09-07T07:19:08.395Z,76706.72
2022-09-07T07:21:55.195Z,76702.72
2022-09-07T07:24:21.520Z,76704.72
2022-09-07T07:26:48.751Z,76702.72
2022-09-07T07:29:18.502Z,76702.72
2022-09-07T07:31:46.888Z,76706.72
2022-09-07T07:34:13.437Z,76710.72
2022-09-07T07:36:40.148Z,76706.72
2022-09-07T07:39:06.717Z,76702.72
2022-09-07T07:44:20.605Z,76684.69
2022-09-07T07:46:48.006Z,76678.69
2022-09-07T07:49:14.437Z,76682.69
2022-09-07T07:54:27.362Z,76674.69
2022-09-07T07:56:53.755Z,76670.69
2022-09-07T07:59:20.180Z,76670.69
2022-09-07T08:01:46.785Z,76666.69
2022-09-07T08:04:13.214Z,76672.69
2022-09-07T08:06:42.112Z,76670.69
2022-09-07T08:09:08.467Z,76666.69
2022-09-07T08:11:35.674Z,76674.69
2022-09-07T08:14:04.896Z,76670.69
2022-09-07T08:16:31.646Z,76674.69
2022-09-07T08:18:58.103Z,76674.69
2022-09-07T08:21:25.254Z,76668.69
2022-09-07T08:23:51.589Z,76670.69
2022-09-07T08:26:17.912Z,76674.69
2022-09-07T08:28:45.550Z,76668.69
2022-09-07T08:31:12.847Z,76668.69
2022-09-07T08:33:39.615Z,76666.69
2022-09-07T08:36:07.746Z,76666.69
2022-09-07T08:38:35.320Z,76666.69
2022-09-07T08:41:02.543Z,76662.69
2022-09-07T08:43:35.062Z,76662.69
2022-09-07T08:46:19.643Z,76656.69
2022-09-07T08:48:46.450Z,76662.69
2022-09-07T08:51:16.121Z,76658.69
2022-09-07T08:53:44.701Z,76662.69
2022-09-07T08:56:14.799Z,76666.69
2022-09-07T08:58:49.085Z,76658.69
2022-09-07T09:01:33.303Z,76650.66
2022-09-07T09:04:17.019Z,76636.66
2022-09-07T09:07:09.348Z,76628.66
2022-09-07T09:09:52.314Z,76614.66
2022-09-07T09:12:37.930Z,76608.63
2022-09-07T09:15:07.371Z,76608.63
2022-09-07T09:17:38.056Z,76614.66
2022-09-07T09:20:10.300Z,76618.66
2022-09-07T09:22:36.687Z,76614.66
2022-09-07T09:25:20.086Z,76608.63
2022-09-07T09:27:47.169Z,76610.63
2022-09-07T09:30:21.066Z,76602.63
2022-09-07T09:32:48.861Z,76606.63
2022-09-07T09:35:15.252Z,76604.63
2022-09-07T09:37:42.267Z,76602.63
2022-09-07T09:40:22.647Z,76602.63
2022-09-07T09:42:58.334Z,76594.63
2022-09-07T09:45:27.252Z,76598.63
2022-09-07T09:47:54.721Z,76594.63
2022-09-07T09:53:22.091Z,76606.63
2022-09-07T09:55:51.135Z,76594.63
2022-09-07T10:01:26.972Z,76594.63
2022-09-07T10:06:25.020Z,76594.63
2022-09-07T10:08:58.972Z,76592.63
2022-09-07T10:14:32.192Z,76588.63
2022-09-07T10:16:59.554Z,76586.63
2022-09-07T10:19:36.740Z,76586.63
2022-09-07T10:22:20.889Z,76582.63
2022-09-07T10:24:47.267Z,76574.63
2022-09-07T10:27:40.970Z,76568.59
2022-09-07T10:30:13.623Z,76566.59
2022-09-07T10:32:39.947Z,76562.59
2022-09-07T10:35:15.412Z,76566.59
2022-09-07T10:38:00.686Z,76572.63
2022-09-07T10:40:27.296Z,76574.63
2022-09-07T10:45:48.323Z,76586.63
2022-09-07T10:48:23.673Z,76578.63
2022-09-07T10:50:56.688Z,76578.63
2022-09-07T10:53:47.626Z,76580.63
2022-09-07T10:56:25.797Z,76582.63
2022-09-07T10:59:02.362Z,76574.63
2022-09-07T11:01:32.396Z,76582.63
2022-09-07T11:03:58.890Z,76578.63
2022-09-07T11:06:29.938Z,76586.63
2022-09-07T11:09:17.183Z,76576.63
2022-09-07T11:12:02.144Z,76574.63
2022-09-07T11:14:31.484Z,76570.59
2022-09-07T11:17:01.087Z,76570.59
2022-09-07T11:19:38.145Z,76570.59
2022-09-07T11:22:07.860Z,76566.59
2022-09-07T11:27:44.137Z,76566.59
2022-09-07T11:30:17.111Z,76570.59
2022-09-07T11:33:02.519Z,76570.59
2022-09-07T11:35:31.662Z,76574.63
2022-09-07T11:38:01.466Z,76576.63
2022-09-07T11:40:30.662Z,76572.63
2022-09-07T11:43:00.112Z,76570.59
2022-09-07T11:45:40.188Z,76574.63
2022-09-07T11:48:19.518Z,76574.63
2022-09-07T11:50:51.249Z,76572.63
2022-09-07T11:53:20.131Z,76570.59
2022-09-07T11:55:49.589Z,76562.59
2022-09-07T11:58:28.393Z,76566.59
2022-09-07T12:01:01.531Z,76566.59
2022-09-07T12:03:34.066Z,76570.59
2022-09-07T12:06:19.203Z,76566.59
2022-09-07T12:09:04.438Z,76566.59
2022-09-07T12:11:49.656Z,76558.59
2022-09-07T12:14:27.246Z,76562.59
2022-09-07T12:16:56.498Z,76558.59
2022-09-07T12:19:24.648Z,76554.59
2022-09-07T12:21:51.011Z,76554.59
2022-09-07T12:24:36.214Z,76554.59
2022-09-07T12:27:03.466Z,76550.59
2022-09-07T12:29:30.328Z,76546.59
2022-09-07T12:31:59.777Z,76546.59
2022-09-07T12:34:33.937Z,76554.59
2022-09-07T12:37:12.415Z,76554.59
2022-09-07T12:39:41.356Z,76552.59
2022-09-07T12:45:15.746Z,76546.59
2022-09-07T12:47:42.142Z,76542.59
2022-09-07T12:50:28.429Z,76544.59
2022-09-07T12:53:14.266Z,76544.59
2022-09-07T12:58:42.950Z,76538.59
2022-09-07T13:01:21.001Z,76534.59
2022-09-07T13:04:06.359Z,76534.59
2022-09-07T13:09:22.055Z,76534.59
2022-09-07T13:11:48.523Z,76534.59
2022-09-07T13:14:15.819Z,76534.59
2022-09-07T13:19:59.260Z,76526.59
2022-09-07T13:22:35.436Z,76526.59
2022-09-07T13:25:03.484Z,76524.56
2022-09-07T13:27:35.627Z,76526.59
2022-09-07T13:30:05.110Z,76518.56
2022-09-07T13:35:21.555Z,76518.56
2022-09-07T13:37:59.292Z,76508.56
2022-09-07T13:40:30.533Z,76506.56
2022-09-07T13:42:58.588Z,76510.56
2022-09-07T13:45:34.186Z,76502.56
2022-09-07T13:48:16.103Z,76498.56
2022-09-07T13:50:57.755Z,76496.56
2022-09-07T13:53:25.174Z,76500.56
2022-09-07T13:56:02.320Z,76494.56
2022-09-07T13:58:33.491Z,76490.56
2022-09-07T14:01:02.608Z,76494.56
2022-09-07T14:03:33.604Z,76490.56
2022-09-07T14:06:18.618Z,76488.56
2022-09-07T14:08:49.791Z,76486.56
2022-09-07T14:11:17.508Z,76486.56
2022-09-07T14:13:43.847Z,76486.56
2022-09-07T14:16:10.385Z,76490.56
2022-09-07T14:18:39.424Z,76486.56
2022-09-07T14:21:09.134Z,76486.56
2022-09-07T14:23:36.738Z,76494.56
2022-09-07T14:26:22.574Z,76494.56
2022-09-07T14:28:51.095Z,76498.56
2022-09-07T14:31:19.717Z,76494.56
2022-09-07T14:33:53.726Z,76498.56
2022-09-07T14:36:42.336Z,76494.56
2022-09-07T14:39:09.188Z,76494.56
2022-09-07T14:41:40.614Z,76490.56
2022-09-07T14:44:06.965Z,76486.56
2022-09-07T14:46:34.212Z,76488.56
2022-09-07T14:49:02.794Z,76490.56
2022-09-07T14:51:36.197Z,76488.56
2022-09-07T14:54:04.514Z,76486.56
2022-09-07T14:56:35.542Z,76488.56
2022-09-07T14:59:02.154Z,76490.56
2022-09-07T15:01:44.118Z,76486.56
2022-09-07T15:04:19.070Z,76474.53
2022-09-07T15:07:02.313Z,76478.53
2022-09-07T15:09:35.224Z,76474.53
2022-09-07T15:12:02.930Z,76476.53
2022-09-07T15:14:29.419Z,76474.53
2022-09-07T15:19:46.464Z,76472.53
2022-09-07T15:22:13.667Z,76474.53
2022-09-07T15:24:40.035Z,76474.53
2022-09-07T15:27:17.831Z,76474.53
2022-09-07T15:29:44.179Z,76472.53
2022-09-07T15:32:10.696Z,76470.53
2022-09-07T15:34:37.088Z,76472.53
2022-09-07T15:38:00.313Z,76466.53
2022-09-07T15:39:50.826Z,76456.53
2022-09-07T15:45:05.272Z,76444.53
2022-09-07T15:47:51.160Z,76444.53
2022-09-07T15:50:18.240Z,76442.53
2022-09-07T15:52:46.476Z,76438.53
2022-09-07T15:55:13.617Z,76434.50
2022-09-07T15:58:10.666Z,76434.50
2022-09-07T16:00:26.509Z,76438.53
2022-09-07T16:03:09.029Z,76446.53
2022-09-07T16:05:35.727Z,76450.53
2022-09-07T16:10:54.324Z,76446.53
2022-09-07T16:13:24.038Z,76446.53
2022-09-07T16:15:50.979Z,76440.53
2022-09-07T16:18:17.838Z,76436.53
2022-09-07T16:20:44.728Z,76438.53
2022-09-07T16:23:13.940Z,76436.53
2022-09-07T16:25:42.336Z,76434.50
2022-09-07T16:28:09.237Z,76430.50
2022-09-07T16:30:38.910Z,76430.50
2022-09-07T16:33:05.457Z,76424.50
2022-09-07T16:35:32.990Z,76418.50
2022-09-07T16:40:46.391Z,76426.50
2022-09-07T16:43:12.827Z,76426.50
2022-09-07T16:48:25.510Z,76410.50
2022-09-07T16:50:56.509Z,76422.50
2022-09-07T16:53:25.750Z,76440.53
2022-09-07T16:55:52.071Z,76446.53
2022-09-07T17:01:09.334Z,76418.50
2022-09-07T17:03:36.437Z,76430.50
2022-09-07T17:06:03.495Z,76450.53
2022-09-07T17:08:29.870Z,76458.53
2022-09-07T17:11:00.823Z,76470.53
2022-09-07T17:13:27.220Z,76470.53
2022-09-07T17:15:53.826Z,76466.53
2022-09-07T17:19:28.945Z,76460.53
2022-09-07T17:21:06.795Z,76450.53
2022-09-07T17:23:41.946Z,76458.53
2022-09-07T17:26:14.652Z,76458.53
2022-09-07T17:28:44.065Z,76466.53
2022-09-07T17:32:23.989Z,76474.53
2022-09-07T17:34:00.859Z,76472.53
2022-09-07T17:36:28.084Z,76470.53
2022-09-07T17:41:43.351Z,76458.53
2022-09-07T17:44:09.785Z,76454.53
2022-09-07T17:46:36.286Z,76446.53
2022-09-07T17:49:02.792Z,76446.53
2022-09-07T17:51:30.650Z,76446.53
2022-09-07T17:53:59.017Z,76442.53
2022-09-07T17:56:25.734Z,76446.53
2022-09-07T17:58:52.623Z,76442.53
2022-09-07T18:01:19.824Z,76450.53
2022-09-07T18:03:46.434Z,76446.53
2022-09-07T18:06:13.663Z,76448.53
2022-09-07T18:08:40.051Z,76450.53
2022-09-07T18:13:57.888Z,76458.53
2022-09-07T18:16:29.254Z,76458.53
2022-09-07T18:18:56.686Z,76462.53
2022-09-07T18:21:24.657Z,76462.53
2022-09-07T18:23:56.139Z,76468.53
2022-09-07T18:26:23.204Z,76462.53
2022-09-07T18:29:25.815Z,76448.53
2022-09-07T18:31:40.147Z,76440.53
2022-09-07T18:34:06.890Z,76434.50
2022-09-07T18:36:34.119Z,76430.50
2022-09-07T18:39:01.222Z,76434.50
2022-09-07T18:41:27.583Z,76440.53
2022-09-07T18:43:55.572Z,76442.53
2022-09-07T18:46:23.340Z,76442.53
2022-09-07T18:48:49.926Z,76438.53
2022-09-07T18:51:16.997Z,76448.53
2022-09-07T18:53:43.563Z,76444.53
2022-09-07T18:56:14.197Z,76446.53
2022-09-07T18:58:41.864Z,76452.53
2022-09-07T19:01:12.691Z,76450.53
2022-09-07T19:03:39.596Z,76450.53
2022-09-07T19:06:08.588Z,76448.53
2022-09-07T19:08:36.284Z,76444.53
2022-09-07T19:11:03.636Z,76448.53
2022-09-07T19:13:30.065Z,76446.53
2022-09-07T19:16:03.090Z,76436.53
2022-09-07T19:18:29.501Z,76442.53
2022-09-07T19:20:55.834Z,76442.53
2022-09-07T19:23:22.146Z,76446.53
2022-09-07T19:25:48.935Z,76446.53
2022-09-07T19:28:15.724Z,76446.53
2022-09-07T19:30:42.056Z,76450.53
2022-09-07T19:33:12.018Z,76450.53
2022-09-07T19:35:38.385Z,76452.53
2022-09-07T19:38:04.822Z,76466.53
2022-09-07T19:40:31.186Z,76460.53
2022-09-07T19:42:57.527Z,76458.53
2022-09-07T19:45:23.918Z,76456.53
2022-09-07T19:47:50.682Z,76458.53
2022-09-07T19:50:19.425Z,76466.53
2022-09-07T19:52:46.620Z,76462.53
2022-09-07T19:55:13.002Z,76464.53
2022-09-07T19:57:39.406Z,76456.53
2022-09-07T20:00:06.239Z,76464.53
2022-09-07T20:02:32.571Z,76458.53
2022-09-07T20:04:59.092Z,76458.53
2022-09-07T20:07:25.461Z,76458.53
2022-09-07T20:09:53.087Z,76462.53
2022-09-07T20:12:19.497Z,76456.53
2022-09-07T20:14:45.952Z,76456.53
2022-09-07T20:17:12.323Z,76452.53
2022-09-07T20:19:38.774Z,76450.53
2022-09-07T20:22:05.154Z,76442.53
2022-09-07T20:24:31.556Z,76446.53
2022-09-07T20:26:57.878Z,76446.53
2022-09-07T20:29:27.633Z,76446.53
2022-09-07T20:31:56.006Z,76442.53
2022-09-07T20:34:22.367Z,76438.53
2022-09-07T20:36:49.234Z,76440.53
2022-09-07T20:39:16.496Z,76432.50
2022-09-07T20:41:42.846Z,76432.50
2022-09-07T20:44:09.427Z,76428.50
2022-09-07T20:46:36.499Z,76424.50
2022-09-07T20:49:03.866Z,76422.50
2022-09-07T20:51:30.244Z,76426.50
2022-09-07T20:53:56.667Z,76422.50
2022-09-07T20:56:24.513Z,76422.50
2022-09-07T20:58:55.419Z,76426.50
2022-09-07T21:01:22.186Z,76426.50
2022-09-07T21:03:49.844Z,76428.50
2022-09-07T21:06:16.909Z,76426.50
2022-09-07T21:08:43.849Z,76426.50
2022-09-07T21:11:16.263Z,76430.50
2022-09-07T21:13:43.087Z,76432.50
2022-09-07T21:16:11.136Z,76430.50
2022-09-07T21:18:38.031Z,76428.50
2022-09-07T21:21:21.413Z,76432.50
2022-09-07T21:23:48.128Z,76426.50
2022-09-07T21:26:15.097Z,76426.50
2022-09-07T21:28:41.423Z,76426.50
2022-09-07T21:31:09.505Z,76424.50
2022-09-07T21:33:36.597Z,76422.50
2022-09-07T21:36:06.911Z,76422.50
2022-09-07T21:38:34.353Z,76426.50
2022-09-07T21:41:05.360Z,76424.50
2022-09-07T21:43:31.709Z,76424.50
2022-09-07T21:45:58.079Z,76424.50
2022-09-07T21:48:24.468Z,76420.50
2022-09-07T21:50:56.435Z,76428.50
2022-09-07T21:53:22.819Z,76430.50
2022-09-07T21:55:55.854Z,76432.50
2022-09-07T21:58:22.403Z,76434.50
2022-09-07T22:00:48.777Z,76432.50
2022-09-07T22:03:15.279Z,76434.50
2022-09-07T22:05:41.645Z,76430.50
2022-09-07T22:08:07.954Z,76428.50
2022-09-07T22:10:34.649Z,76430.50
2022-09-07T22:13:01.121Z,76428.50
2022-09-07T22:15:27.475Z,76424.50
2022-09-07T22:17:54.123Z,76418.50
2022-09-07T22:20:20.624Z,76414.50
2022-09-07T22:22:47.407Z,76416.50
2022-09-07T22:25:13.944Z,76410.50
2022-09-07T22:27:40.302Z,76408.50
2022-09-07T22:30:07.374Z,76406.50
2022-09-07T22:32:33.726Z,76412.50
2022-09-07T22:35:00.069Z,76416.50
2022-09-07T22:37:26.805Z,76416.50
2022-09-07T22:39:53.168Z,76422.50
2022-09-07T22:42:19.570Z,76422.50
2022-09-07T22:44:45.909Z,76418.50
2022-09-07T22:47:12.352Z,76422.50
2022-09-07T22:49:38.739Z,76418.50
2022-09-07T22:52:05.157Z,76420.50
2022-09-07T22:54:31.487Z,76410.50
2022-09-07T22:56:57.847Z,76414.50
2022-09-07T22:59:24.206Z,76416.50
2022-09-07T23:01:50.524Z,76418.50
2022-09-07T23:04:16.943Z,76418.50
2022-09-07T23:06:43.696Z,76412.50
2022-09-07T23:09:11.787Z,76404.50
2022-09-07T23:11:38.723Z,76406.50
2022-09-07T23:14:07.004Z,76406.50
2022-09-07T23:16:33.374Z,76402.50
2022-09-07T23:19:00.400Z,76394.50
2022-09-07T23:21:27.392Z,76392.50
2022-09-07T23:23:54.761Z,76394.50
2022-09-07T23:26:22.183Z,76396.50
2022-09-07T23:28:55.139Z,76392.50
2022-09-07T23:31:21.675Z,76394.50
2022-09-07T23:33:48.163Z,76394.50
2022-09-07T23:36:14.906Z,76392.50
2022-09-07T23:38:41.431Z,76388.47
2022-09-07T23:41:07.818Z,76398.50
2022-09-07T23:43:34.202Z,76396.50
2022-09-07T23:46:00.751Z,76388.47
2022-09-07T23:48:27.470Z,76386.47
2022-09-07T23:50:54.295Z,76382.47
2022-09-07T23:53:22.005Z,76382.47
2022-09-07T23:55:50.100Z,76386.47
2022-09-07T23:58:16.459Z,76382.47
